sensor_id;sensor_type;location;lat;lon;timestamp;pressure;altitude;pressure_sealevel;temperature;humidity
42847;BME280;28495;49.916;14.536;2023-02-02T00:05:51;96539.59;;;1.01;74.27
42847;BME280;28495;49.916;14.536;2023-02-02T00:11:13;96554.16;;;1.01;75.01
42847;BME280;28495;49.916;14.536;2023-02-02T00:16:54;96561.28;;;1.12;74.84
42847;BME280;28495;49.916;14.536;2023-02-02T00:22:15;96559.28;;;1.17;74.73
42847;BME280;28495;49.916;14.536;2023-02-02T00:27:36;96557.34;;;1.20;74.73
42847;BME280;28495;49.916;14.536;2023-02-02T00:32:57;96576.25;;;1.19;74.57
42847;BME280;28495;49.916;14.536;2023-02-02T00:38:19;96571.03;;;1.21;74.83
42847;BME280;28495;49.916;14.536;2023-02-02T00:43:39;96572.88;;;1.19;74.60
42847;BME280;28495;49.916;14.536;2023-02-02T00:49:00;96574.00;;;1.29;74.56
42847;BME280;28495;49.916;14.536;2023-02-02T00:54:21;96572.50;;;1.25;74.46
42847;BME280;28495;49.916;14.536;2023-02-02T00:59:42;96584.53;;;1.25;74.59
42847;BME280;28495;49.916;14.536;2023-02-02T01:05:03;96581.59;;;1.31;74.64
42847;BME280;28495;49.916;14.536;2023-02-02T01:10:25;96585.81;;;1.32;74.85
42847;BME280;28495;49.916;14.536;2023-02-02T01:15:47;96579.47;;;1.23;74.55
42847;BME280;28495;49.916;14.536;2023-02-02T01:21:10;96584.81;;;1.20;74.58
42847;BME280;28495;49.916;14.536;2023-02-02T01:26:31;96575.34;;;1.20;74.48
42847;BME280;28495;49.916;14.536;2023-02-02T01:31:51;96573.41;;;1.24;74.35
42847;BME280;28495;49.916;14.536;2023-02-02T01:37:12;96569.03;;;1.26;74.50
42847;BME280;28495;49.916;14.536;2023-02-02T01:42:33;96571.16;;;1.34;74.87
42847;BME280;28495;49.916;14.536;2023-02-02T01:47:57;96573.66;;;1.35;74.67
42847;BME280;28495;49.916;14.536;2023-02-02T01:53:19;96571.31;;;1.31;74.76
42847;BME280;28495;49.916;14.536;2023-02-02T01:58:40;96573.25;;;1.27;74.31
42847;BME280;28495;49.916;14.536;2023-02-02T02:04:02;96568.28;;;1.24;74.46
42847;BME280;28495;49.916;14.536;2023-02-02T02:09:23;96562.59;;;1.19;74.08
42847;BME280;28495;49.916;14.536;2023-02-02T02:14:47;96559.44;;;1.14;74.34
42847;BME280;28495;49.916;14.536;2023-02-02T02:27:01;96568.59;;;1.03;74.72
42847;BME280;28495;49.916;14.536;2023-02-02T02:38:40;96554.91;;;1.03;75.21
42847;BME280;28495;49.916;14.536;2023-02-02T02:44:08;96560.78;;;1.05;74.93
42847;BME280;28495;49.916;14.536;2023-02-02T02:49:30;96561.63;;;1.05;74.94
42847;BME280;28495;49.916;14.536;2023-02-02T02:54:55;96556.88;;;1.14;75.00
42847;BME280;28495;49.916;14.536;2023-02-02T03:00:43;96560.09;;;1.17;74.68
42847;BME280;28495;49.916;14.536;2023-02-02T03:06:22;96561.00;;;1.16;74.94
42847;BME280;28495;49.916;14.536;2023-02-02T03:11:46;96563.84;;;1.12;74.42
42847;BME280;28495;49.916;14.536;2023-02-02T03:17:07;96553.84;;;1.07;74.35
42847;BME280;28495;49.916;14.536;2023-02-02T03:22:28;96550.09;;;1.13;74.66
42847;BME280;28495;49.916;14.536;2023-02-02T03:27:49;96559.63;;;1.11;74.35
42847;BME280;28495;49.916;14.536;2023-02-02T03:33:12;96558.13;;;1.06;74.48
42847;BME280;28495;49.916;14.536;2023-02-02T03:38:33;96562.34;;;1.08;74.40
42847;BME280;28495;49.916;14.536;2023-02-02T03:43:55;96572.97;;;1.01;74.09
42847;BME280;28495;49.916;14.536;2023-02-02T03:49:15;96573.16;;;0.98;74.30
42847;BME280;28495;49.916;14.536;2023-02-02T03:54:36;96580.69;;;1.01;74.09
42847;BME280;28495;49.916;14.536;2023-02-02T03:59:57;96572.81;;;1.04;74.15
42847;BME280;28495;49.916;14.536;2023-02-02T04:05:17;96582.19;;;1.05;73.86
42847;BME280;28495;49.916;14.536;2023-02-02T04:10:38;96579.03;;;1.00;74.18
42847;BME280;28495;49.916;14.536;2023-02-02T04:16:02;96597.25;;;0.96;73.96
42847;BME280;28495;49.916;14.536;2023-02-02T04:21:23;96604.22;;;0.94;74.35
42847;BME280;28495;49.916;14.536;2023-02-02T04:26:43;96601.66;;;0.94;74.20
42847;BME280;28495;49.916;14.536;2023-02-02T04:32:05;96610.66;;;1.01;74.26
42847;BME280;28495;49.916;14.536;2023-02-02T04:37:26;96610.44;;;1.05;74.56
42847;BME280;28495;49.916;14.536;2023-02-02T04:42:47;96612.41;;;1.00;74.07
42847;BME280;28495;49.916;14.536;2023-02-02T04:48:08;96610.84;;;0.98;74.08
42847;BME280;28495;49.916;14.536;2023-02-02T04:53:29;96620.19;;;0.99;73.74
42847;BME280;28495;49.916;14.536;2023-02-02T04:58:52;96616.91;;;0.97;73.85
42847;BME280;28495;49.916;14.536;2023-02-02T05:04:14;96627.81;;;1.00;74.06
42847;BME280;28495;49.916;14.536;2023-02-02T05:09:35;96637.25;;;1.00;73.69
42847;BME280;28495;49.916;14.536;2023-02-02T05:14:56;96627.97;;;0.97;73.43
42847;BME280;28495;49.916;14.536;2023-02-02T05:20:20;96638.25;;;0.97;73.55
42847;BME280;28495;49.916;14.536;2023-02-02T05:25:41;96652.00;;;0.96;73.56
42847;BME280;28495;49.916;14.536;2023-02-02T05:31:05;96663.69;;;1.02;74.03
42847;BME280;28495;49.916;14.536;2023-02-02T05:36:27;96663.78;;;1.00;73.32
42847;BME280;28495;49.916;14.536;2023-02-02T05:41:48;96668.75;;;1.03;73.70
42847;BME280;28495;49.916;14.536;2023-02-02T05:47:09;96668.81;;;1.02;73.85
42847;BME280;28495;49.916;14.536;2023-02-02T05:52:32;96672.97;;;1.04;73.69
42847;BME280;28495;49.916;14.536;2023-02-02T05:57:54;96668.75;;;1.03;73.34
42847;BME280;28495;49.916;14.536;2023-02-02T06:03:15;96681.50;;;1.05;73.33
42847;BME280;28495;49.916;14.536;2023-02-02T06:08:36;96685.06;;;1.02;73.29
42847;BME280;28495;49.916;14.536;2023-02-02T06:13:57;96690.94;;;1.04;73.26
42847;BME280;28495;49.916;14.536;2023-02-02T06:19:18;96693.75;;;1.00;73.36
42847;BME280;28495;49.916;14.536;2023-02-02T06:24:38;96709.25;;;0.98;73.19
42847;BME280;28495;49.916;14.536;2023-02-02T06:29:59;96701.28;;;1.03;73.64
42847;BME280;28495;49.916;14.536;2023-02-02T06:35:20;96719.09;;;1.06;73.30
42847;BME280;28495;49.916;14.536;2023-02-02T06:40:42;96712.06;;;1.10;73.36
42847;BME280;28495;49.916;14.536;2023-02-02T06:46:03;96719.59;;;1.13;72.99
42847;BME280;28495;49.916;14.536;2023-02-02T06:51:23;96713.31;;;1.18;73.49
42847;BME280;28495;49.916;14.536;2023-02-02T06:56:44;96717.28;;;1.24;73.32
42847;BME280;28495;49.916;14.536;2023-02-02T07:02:11;96729.88;;;1.29;72.98
42847;BME280;28495;49.916;14.536;2023-02-02T07:07:33;96725.66;;;1.28;72.64
42847;BME280;28495;49.916;14.536;2023-02-02T07:12:54;96725.66;;;1.28;73.31
42847;BME280;28495;49.916;14.536;2023-02-02T07:18:16;96729.88;;;1.29;73.06
42847;BME280;28495;49.916;14.536;2023-02-02T07:23:37;96727.22;;;1.30;73.07
42847;BME280;28495;49.916;14.536;2023-02-02T07:28:57;96742.56;;;1.32;73.36
42847;BME280;28495;49.916;14.536;2023-02-02T07:34:18;96749.09;;;1.37;73.01
42847;BME280;28495;49.916;14.536;2023-02-02T07:39:38;96743.03;;;1.39;72.97
42847;BME280;28495;49.916;14.536;2023-02-02T07:44:59;96752.09;;;1.46;73.57
42847;BME280;28495;49.916;14.536;2023-02-02T07:50:40;96764.94;;;1.46;72.76
42847;BME280;28495;49.916;14.536;2023-02-02T07:56:25;96764.34;;;1.57;72.97
42847;BME280;28495;49.916;14.536;2023-02-02T08:01:47;96766.09;;;1.72;72.83
42847;BME280;28495;49.916;14.536;2023-02-02T08:07:08;96759.66;;;1.95;72.92
42847;BME280;28495;49.916;14.536;2023-02-02T08:12:29;96778.19;;;2.01;73.03
42847;BME280;28495;49.916;14.536;2023-02-02T08:17:49;96785.38;;;1.95;72.32
42847;BME280;28495;49.916;14.536;2023-02-02T08:23:11;96779.31;;;1.96;72.38
42847;BME280;28495;49.916;14.536;2023-02-02T08:28:35;96786.94;;;1.98;72.61
42847;BME280;28495;49.916;14.536;2023-02-02T08:33:57;96797.38;;;1.95;72.81
42847;BME280;28495;49.916;14.536;2023-02-02T08:39:18;96806.75;;;1.96;72.30
42847;BME280;28495;49.916;14.536;2023-02-02T08:44:38;96807.75;;;1.93;72.66
42847;BME280;28495;49.916;14.536;2023-02-02T08:50:20;96814.00;;;1.89;72.55
42847;BME280;28495;49.916;14.536;2023-02-02T08:55:41;96818.47;;;1.86;72.82
42847;BME280;28495;49.916;14.536;2023-02-02T09:01:15;96829.59;;;1.86;72.95
42847;BME280;28495;49.916;14.536;2023-02-02T09:06:38;96831.56;;;1.97;72.82
42847;BME280;28495;49.916;14.536;2023-02-02T09:11:59;96839.13;;;2.00;72.82
42847;BME280;28495;49.916;14.536;2023-02-02T09:17:20;96839.88;;;2.02;72.40
42847;BME280;28495;49.916;14.536;2023-02-02T09:22:41;96845.56;;;2.07;72.84
42847;BME280;28495;49.916;14.536;2023-02-02T09:28:02;96850.72;;;2.07;72.68
42847;BME280;28495;49.916;14.536;2023-02-02T09:33:23;96860.25;;;2.05;72.56
42847;BME280;28495;49.916;14.536;2023-02-02T09:38:45;96869.56;;;2.08;72.91
42847;BME280;28495;49.916;14.536;2023-02-02T09:44:32;96862.41;;;2.13;72.10
42847;BME280;28495;49.916;14.536;2023-02-02T09:50:10;96867.75;;;2.10;72.71
42847;BME280;28495;49.916;14.536;2023-02-02T09:55:42;96869.41;;;2.11;72.60
42847;BME280;28495;49.916;14.536;2023-02-02T10:06:39;96888.81;;;2.17;72.37
42847;BME280;28495;49.916;14.536;2023-02-02T10:23:41;96896.00;;;2.26;72.58
42847;BME280;28495;49.916;14.536;2023-02-02T10:40:09;96899.81;;;2.35;72.39
42847;BME280;28495;49.916;14.536;2023-02-02T10:45:35;96903.78;;;2.40;72.62
42847;BME280;28495;49.916;14.536;2023-02-02T10:51:01;96894.19;;;2.58;72.73
42847;BME280;28495;49.916;14.536;2023-02-02T10:56:36;96888.63;;;2.81;72.39
42847;BME280;28495;49.916;14.536;2023-02-02T11:01:59;96898.13;;;2.95;72.55
42847;BME280;28495;49.916;14.536;2023-02-02T11:07:38;96892.38;;;3.05;72.44
42847;BME280;28495;49.916;14.536;2023-02-02T11:12:59;96888.72;;;3.24;72.38
42847;BME280;28495;49.916;14.536;2023-02-02T11:18:29;96881.16;;;3.35;72.13
42847;BME280;28495;49.916;14.536;2023-02-02T11:23:54;96875.81;;;3.53;71.95
42847;BME280;28495;49.916;14.536;2023-02-02T11:29:19;96878.25;;;3.69;72.13
42847;BME280;28495;49.916;14.536;2023-02-02T11:34:44;96877.44;;;3.69;71.70
42847;BME280;28495;49.916;14.536;2023-02-02T11:45:53;96867.72;;;3.87;72.12
42847;BME280;28495;49.916;14.536;2023-02-02T11:51:21;96856.91;;;3.94;71.89
42847;BME280;28495;49.916;14.536;2023-02-02T11:56:49;96866.56;;;4.05;71.67
42847;BME280;28495;49.916;14.536;2023-02-02T12:07:32;96872.78;;;4.16;71.43
42847;BME280;28495;49.916;14.536;2023-02-02T12:24:37;96871.25;;;4.53;71.26
42847;BME280;28495;49.916;14.536;2023-02-02T12:30:19;96870.34;;;4.54;70.40
42847;BME280;28495;49.916;14.536;2023-02-02T12:41:26;96874.44;;;4.44;70.69
42847;BME280;28495;49.916;14.536;2023-02-02T12:46:59;96877.78;;;4.59;70.84
42847;BME280;28495;49.916;14.536;2023-02-02T13:11:16;96889.34;;;4.53;70.02
42847;BME280;28495;49.916;14.536;2023-02-02T13:16:16;96894.38;;;4.42;69.69
42847;BME280;28495;49.916;14.536;2023-02-02T13:21:37;96894.25;;;4.31;69.79
42847;BME280;28495;49.916;14.536;2023-02-02T13:27:01;96899.34;;;4.18;68.90
42847;BME280;28495;49.916;14.536;2023-02-02T13:32:33;96909.75;;;4.16;69.24
42847;BME280;28495;49.916;14.536;2023-02-02T13:38:34;96904.69;;;4.15;68.85
42847;BME280;28495;49.916;14.536;2023-02-02T13:44:04;96920.19;;;4.15;69.04
42847;BME280;28495;49.916;14.536;2023-02-02T13:49:34;96912.72;;;4.10;68.75
42847;BME280;28495;49.916;14.536;2023-02-02T13:55:19;96924.16;;;4.06;68.98
42847;BME280;28495;49.916;14.536;2023-02-02T14:00:50;96928.50;;;4.05;68.99
42847;BME280;28495;49.916;14.536;2023-02-02T14:11:38;96941.19;;;4.08;68.94
42847;BME280;28495;49.916;14.536;2023-02-02T14:28:09;96960.94;;;3.95;68.76
42847;BME280;28495;49.916;14.536;2023-02-02T14:33:38;96972.66;;;3.86;68.73
42847;BME280;28495;49.916;14.536;2023-02-02T14:39:19;96982.81;;;3.75;68.91
42847;BME280;28495;49.916;14.536;2023-02-02T14:45:03;96996.09;;;3.69;68.79
42847;BME280;28495;49.916;14.536;2023-02-02T14:50:43;96994.72;;;3.63;68.52
42847;BME280;28495;49.916;14.536;2023-02-02T14:56:12;97017.72;;;3.66;69.18
42847;BME280;28495;49.916;14.536;2023-02-02T15:01:36;97025.56;;;3.64;68.87
42847;BME280;28495;49.916;14.536;2023-02-02T15:12:45;97037.59;;;3.64;68.47
42847;BME280;28495;49.916;14.536;2023-02-02T15:18:16;97048.88;;;3.63;68.44
42847;BME280;28495;49.916;14.536;2023-02-02T15:23:41;97062.84;;;3.59;68.74
42847;BME280;28495;49.916;14.536;2023-02-02T15:29:13;97068.00;;;3.59;68.79
42847;BME280;28495;49.916;14.536;2023-02-02T15:34:42;97070.75;;;3.56;68.51
42847;BME280;28495;49.916;14.536;2023-02-02T15:40:20;97077.84;;;3.52;68.49
42847;BME280;28495;49.916;14.536;2023-02-02T15:45:52;97090.16;;;3.47;68.60
42847;BME280;28495;49.916;14.536;2023-02-02T15:51:15;97120.78;;;3.37;68.68
42847;BME280;28495;49.916;14.536;2023-02-02T15:56:37;97123.75;;;3.31;68.48
42847;BME280;28495;49.916;14.536;2023-02-02T16:07:32;97156.88;;;3.53;68.50
42847;BME280;28495;49.916;14.536;2023-02-02T16:12:56;97161.22;;;3.37;68.13
42847;BME280;28495;49.916;14.536;2023-02-02T16:18:18;97176.19;;;3.14;67.99
42847;BME280;28495;49.916;14.536;2023-02-02T16:23:39;97192.25;;;3.03;68.35
42847;BME280;28495;49.916;14.536;2023-02-02T16:29:00;97210.63;;;2.97;68.31
42847;BME280;28495;49.916;14.536;2023-02-02T16:40:27;97225.50;;;2.92;68.27
42847;BME280;28495;49.916;14.536;2023-02-02T16:45:49;97242.69;;;2.91;68.92
42847;BME280;28495;49.916;14.536;2023-02-02T16:56:50;97265.56;;;2.97;68.71
42847;BME280;28495;49.916;14.536;2023-02-02T17:02:37;97276.25;;;2.89;68.71
42847;BME280;28495;49.916;14.536;2023-02-02T17:08:01;97293.22;;;2.94;69.12
42847;BME280;28495;49.916;14.536;2023-02-02T17:18:56;97308.44;;;2.98;68.55
42847;BME280;28495;49.916;14.536;2023-02-02T17:24:16;97309.75;;;3.71;69.89
42847;BME280;28495;49.916;14.536;2023-02-02T17:29:38;97327.50;;;3.45;69.24
42847;BME280;28495;49.916;14.536;2023-02-02T17:34:59;97332.94;;;3.23;68.77
42847;BME280;28495;49.916;14.536;2023-02-02T17:40:21;97347.44;;;3.08;68.63
42847;BME280;28495;49.916;14.536;2023-02-02T17:45:43;97356.97;;;2.90;69.32
42847;BME280;28495;49.916;14.536;2023-02-02T17:51:04;97361.75;;;2.80;68.62
42847;BME280;28495;49.916;14.536;2023-02-02T17:56:26;97371.91;;;2.83;68.81
42847;BME280;28495;49.916;14.536;2023-02-02T18:01:47;97385.22;;;2.74;69.53
42847;BME280;28495;49.916;14.536;2023-02-02T18:07:08;97391.97;;;2.77;69.36
42847;BME280;28495;49.916;14.536;2023-02-02T18:12:29;97385.31;;;2.72;69.79
42847;BME280;28495;49.916;14.536;2023-02-02T18:17:51;97401.75;;;2.70;68.99
42847;BME280;28495;49.916;14.536;2023-02-02T18:23:12;97404.47;;;2.67;69.36
42847;BME280;28495;49.916;14.536;2023-02-02T18:28:34;97415.41;;;2.72;70.05
42847;BME280;28495;49.916;14.536;2023-02-02T18:33:54;97407.72;;;2.70;68.98
42847;BME280;28495;49.916;14.536;2023-02-02T18:39:15;97414.31;;;2.58;68.82
42847;BME280;28495;49.916;14.536;2023-02-02T18:44:36;97420.97;;;2.63;69.68
42847;BME280;28495;49.916;14.536;2023-02-02T18:49:57;97430.47;;;2.62;69.29
42847;BME280;28495;49.916;14.536;2023-02-02T18:55:18;97429.78;;;2.76;70.28
42847;BME280;28495;49.916;14.536;2023-02-02T19:00:40;97429.38;;;2.66;69.11
42847;BME280;28495;49.916;14.536;2023-02-02T19:06:03;97426.81;;;2.66;69.40
42847;BME280;28495;49.916;14.536;2023-02-02T19:11:45;97450.47;;;2.74;69.69
42847;BME280;28495;49.916;14.536;2023-02-02T19:17:22;97454.31;;;2.66;69.86
42847;BME280;28495;49.916;14.536;2023-02-02T19:22:44;97465.97;;;2.55;69.15
42847;BME280;28495;49.916;14.536;2023-02-02T19:28:19;97461.50;;;2.59;70.02
42847;BME280;28495;49.916;14.536;2023-02-02T19:33:42;97472.56;;;2.61;70.06
42847;BME280;28495;49.916;14.536;2023-02-02T19:39:14;97480.16;;;2.64;69.51
42847;BME280;28495;49.916;14.536;2023-02-02T19:44:35;97478.63;;;2.60;70.07
42847;BME280;28495;49.916;14.536;2023-02-02T19:50:13;97489.19;;;2.54;69.52
42847;BME280;28495;49.916;14.536;2023-02-02T19:55:35;97500.41;;;2.53;69.51
42847;BME280;28495;49.916;14.536;2023-02-02T20:01:09;97500.66;;;2.66;70.13
42847;BME280;28495;49.916;14.536;2023-02-02T20:06:35;97508.13;;;2.53;69.53
42847;BME280;28495;49.916;14.536;2023-02-02T20:12:30;97503.38;;;2.63;70.37
42847;BME280;28495;49.916;14.536;2023-02-02T20:17:53;97515.91;;;2.70;69.82
42847;BME280;28495;49.916;14.536;2023-02-02T20:23:33;97519.47;;;2.68;70.44
42847;BME280;28495;49.916;14.536;2023-02-02T20:28:58;97518.69;;;2.66;69.91
42847;BME280;28495;49.916;14.536;2023-02-02T20:34:28;97531.03;;;2.59;69.77
42847;BME280;28495;49.916;14.536;2023-02-02T20:45:19;97547.75;;;2.50;70.10
42847;BME280;28495;49.916;14.536;2023-02-02T20:50:41;97548.63;;;2.49;69.95
42847;BME280;28495;49.916;14.536;2023-02-02T20:56:02;97557.00;;;2.54;70.12
42847;BME280;28495;49.916;14.536;2023-02-02T21:01:23;97559.81;;;2.67;70.13
42847;BME280;28495;49.916;14.536;2023-02-02T21:06:46;97557.25;;;2.67;70.22
42847;BME280;28495;49.916;14.536;2023-02-02T21:12:08;97558.88;;;2.70;70.14
42847;BME280;28495;49.916;14.536;2023-02-02T21:17:36;97554.63;;;2.69;69.55
42847;BME280;28495;49.916;14.536;2023-02-02T21:22:58;97560.66;;;2.68;69.91
42847;BME280;28495;49.916;14.536;2023-02-02T21:28:19;97555.53;;;2.68;69.97
42847;BME280;28495;49.916;14.536;2023-02-02T21:33:41;97561.09;;;2.78;70.33
42847;BME280;28495;49.916;14.536;2023-02-02T21:39:26;97553.41;;;2.76;69.89
42847;BME280;28495;49.916;14.536;2023-02-02T21:44:54;97562.66;;;2.80;70.14
42847;BME280;28495;49.916;14.536;2023-02-02T21:50:19;97568.09;;;2.74;69.71
42847;BME280;28495;49.916;14.536;2023-02-02T21:55:40;97569.94;;;2.89;69.97
42847;BME280;28495;49.916;14.536;2023-02-02T22:01:21;97564.88;;;2.88;69.98
42847;BME280;28495;49.916;14.536;2023-02-02T22:06:49;97580.66;;;2.99;69.81
42847;BME280;28495;49.916;14.536;2023-02-02T22:12:16;97575.31;;;2.85;69.63
42847;BME280;28495;49.916;14.536;2023-02-02T22:17:40;97578.59;;;2.88;69.71
42847;BME280;28495;49.916;14.536;2023-02-02T22:23:02;97569.19;;;2.87;69.80
42847;BME280;28495;49.916;14.536;2023-02-02T22:28:24;97572.75;;;2.85;70.15
42847;BME280;28495;49.916;14.536;2023-02-02T22:33:45;97564.44;;;2.80;69.36
42847;BME280;28495;49.916;14.536;2023-02-02T22:39:06;97569.41;;;2.83;69.75
42847;BME280;28495;49.916;14.536;2023-02-02T22:44:26;97581.53;;;2.81;69.92
42847;BME280;28495;49.916;14.536;2023-02-02T22:49:47;97577.44;;;2.77;69.87
42847;BME280;28495;49.916;14.536;2023-02-02T22:55:09;97586.44;;;2.68;70.04
42847;BME280;28495;49.916;14.536;2023-02-02T23:00:31;97586.47;;;2.66;69.76
42847;BME280;28495;49.916;14.536;2023-02-02T23:05:52;97586.22;;;2.53;69.99
42847;BME280;28495;49.916;14.536;2023-02-02T23:11:13;97589.38;;;2.41;69.58
42847;BME280;28495;49.916;14.536;2023-02-02T23:16:34;97572.38;;;2.37;69.64
42847;BME280;28495;49.916;14.536;2023-02-02T23:21:55;97582.59;;;2.19;69.90
42847;BME280;28495;49.916;14.536;2023-02-02T23:27:16;97583.75;;;2.12;70.05
42847;BME280;28495;49.916;14.536;2023-02-02T23:32:37;97575.34;;;2.08;70.26
42847;BME280;28495;49.916;14.536;2023-02-02T23:37:58;97568.19;;;2.15;70.05
42847;BME280;28495;49.916;14.536;2023-02-02T23:43:18;97564.00;;;2.12;70.59
42847;BME280;28495;49.916;14.536;2023-02-02T23:48:39;97566.72;;;2.28;70.83
42847;BME280;28495;49.916;14.536;2023-02-02T23:54:00;97562.91;;;2.18;70.36
42847;BME280;28495;49.916;14.536;2023-02-02T23:59:21;97558.31;;;2.06;70.45
